createdAt,value
2017-02-06T00:00:01.726Z,2.88
2017-02-06T00:01:13.135Z,2.81
2017-02-06T00:02:24.540Z,2.78
2017-02-06T00:03:35.985Z,2.83
2017-02-06T00:04:47.390Z,2.83
2017-02-06T00:05:58.786Z,2.8
2017-02-06T00:07:10.189Z,2.8
2017-02-06T00:08:21.589Z,2.72
2017-02-06T00:09:33.247Z,2.66
2017-02-06T00:10:44.650Z,2.65
2017-02-06T00:11:56.057Z,2.69
2017-02-06T00:13:07.459Z,2.6
2017-02-06T00:14:18.870Z,2.65
2017-02-06T00:15:30.322Z,2.62
2017-02-06T00:16:41.928Z,2.62
2017-02-06T00:17:53.334Z,2.6
2017-02-06T00:19:04.743Z,2.63
2017-02-06T00:20:16.341Z,2.66
2017-02-06T00:21:27.990Z,2.65
2017-02-06T00:22:39.598Z,2.62
2017-02-06T00:23:51.006Z,2.63
2017-02-06T00:25:02.399Z,2.62
2017-02-06T00:26:13.802Z,2.59
2017-02-06T00:27:25.458Z,2.58
2017-02-06T00:28:36.864Z,2.52
2017-02-06T00:29:48.272Z,2.47
2017-02-06T00:30:59.875Z,2.45
2017-02-06T00:32:11.283Z,2.44
2017-02-06T00:33:23.141Z,2.34
2017-02-06T00:34:34.542Z,2.38
2017-02-06T00:35:45.951Z,2.36
2017-02-06T00:36:57.358Z,2.33
2017-02-06T00:38:08.771Z,2.27
2017-02-06T00:39:20.225Z,2.23
2017-02-06T00:40:31.632Z,2.22
2017-02-06T00:41:43.037Z,2.27
2017-02-06T00:42:54.431Z,2.27
2017-02-06T00:44:05.830Z,2.27
2017-02-06T00:45:17.283Z,2.22
2017-02-06T00:46:29.083Z,2.29
2017-02-06T00:47:40.686Z,2.18
2017-02-06T00:48:52.086Z,2.24
2017-02-06T00:50:03.491Z,2.26
2017-02-06T00:51:14.933Z,2.22
2017-02-06T00:52:26.331Z,2.22
2017-02-06T00:53:37.928Z,2.23
2017-02-06T00:54:49.328Z,2.22
2017-02-06T00:56:00.732Z,2.22
2017-02-06T00:57:12.179Z,2.16
2017-02-06T00:58:23.582Z,2.2
2017-02-06T00:59:34.979Z,2.2
2017-02-06T01:00:46.380Z,2.22
2017-02-06T01:01:57.778Z,2.18
2017-02-06T01:03:09.236Z,2.06
2017-02-06T01:04:20.639Z,2.08
2017-02-06T01:05:32.043Z,2.08
2017-02-06T01:06:43.441Z,2.06
2017-02-06T01:07:54.843Z,1.98
2017-02-06T01:09:06.290Z,2.01
2017-02-06T01:10:17.699Z,1.94
2017-02-06T01:11:29.096Z,1.98
2017-02-06T01:12:40.497Z,2.01
2017-02-06T01:13:52.098Z,2.02
2017-02-06T01:15:03.551Z,1.94
2017-02-06T01:16:14.945Z,2.01
2017-02-06T01:17:26.549Z,1.97
2017-02-06T01:18:37.940Z,1.92
2017-02-06T01:19:49.339Z,1.94
2017-02-06T01:21:00.795Z,1.87
2017-02-06T01:22:12.198Z,1.87
2017-02-06T01:23:23.601Z,1.79
2017-02-06T01:24:35.001Z,1.71
2017-02-06T01:25:46.400Z,1.72
2017-02-06T01:26:57.851Z,1.71
2017-02-06T01:28:09.260Z,1.71
2017-02-06T01:29:20.660Z,1.68
2017-02-06T01:30:32.063Z,1.69
2017-02-06T01:31:43.666Z,1.71
2017-02-06T01:32:55.109Z,1.84
2017-02-06T01:34:06.508Z,1.56
2017-02-06T01:35:17.918Z,1.65
2017-02-06T01:36:29.323Z,1.57
2017-02-06T01:37:40.779Z,1.61
2017-02-06T01:38:52.430Z,1.64
2017-02-06T01:40:03.831Z,1.56
2017-02-06T01:41:15.234Z,1.65
2017-02-06T01:42:26.843Z,1.64
2017-02-06T01:43:38.252Z,1.68
2017-02-06T01:44:49.708Z,1.61
2017-02-06T01:46:01.106Z,1.64
2017-02-06T01:47:12.703Z,1.61
2017-02-06T01:48:24.109Z,1.65
2017-02-06T01:49:35.513Z,1.66
2017-02-06T01:50:46.969Z,1.64
2017-02-06T01:51:58.572Z,1.56
2017-02-06T01:53:09.978Z,1.6
2017-02-06T01:54:21.378Z,1.6
2017-02-06T01:55:32.976Z,1.66
2017-02-06T01:56:44.422Z,1.61
2017-02-06T01:57:56.267Z,1.71
2017-02-06T01:59:07.669Z,1.68
2017-02-06T02:00:19.063Z,1.61
2017-02-06T02:01:30.662Z,1.68
2017-02-06T02:02:42.117Z,1.57
2017-02-06T02:03:53.723Z,1.58
2017-02-06T02:05:05.119Z,1.58
2017-02-06T02:06:16.517Z,1.66
2017-02-06T02:07:27.919Z,1.64
2017-02-06T02:08:39.366Z,1.6
2017-02-06T02:09:50.766Z,1.56
2017-02-06T02:11:02.572Z,1.54
2017-02-06T02:12:14.181Z,1.69
2017-02-06T02:13:25.578Z,1.54
2017-02-06T02:14:37.033Z,1.58
2017-02-06T02:15:48.429Z,1.64
2017-02-06T02:16:59.845Z,1.68
2017-02-06T02:18:11.250Z,1.71
2017-02-06T02:19:22.650Z,1.72
2017-02-06T02:20:34.098Z,1.69
2017-02-06T02:21:45.704Z,1.76
2017-02-06T02:22:57.097Z,1.78
2017-02-06T02:24:08.500Z,1.71
2017-02-06T02:25:20.107Z,1.72
2017-02-06T02:26:31.555Z,1.82
2017-02-06T02:27:42.957Z,1.86
2017-02-06T02:28:54.560Z,1.76
2017-02-06T02:30:06.156Z,1.86
2017-02-06T02:31:17.759Z,1.78
2017-02-06T02:32:29.206Z,1.83
2017-02-06T02:33:40.608Z,1.86
2017-02-06T02:34:52.015Z,1.84
2017-02-06T02:36:03.410Z,1.92
2017-02-06T02:37:15.017Z,1.87
2017-02-06T02:38:26.468Z,1.92
2017-02-06T02:39:37.864Z,1.92
2017-02-06T02:40:49.271Z,2.02
2017-02-06T02:42:00.661Z,1.98
2017-02-06T02:43:12.060Z,1.97
2017-02-06T02:44:23.513Z,2.02
2017-02-06T02:45:34.909Z,2.05
2017-02-06T02:46:46.315Z,1.98
2017-02-06T02:47:57.716Z,2.05
2017-02-06T02:49:09.117Z,2.05
2017-02-06T02:50:20.567Z,2.09
2017-02-06T02:51:32.171Z,2.06
2017-02-06T02:52:43.568Z,2.12
2017-02-06T02:53:54.964Z,2.06
2017-02-06T02:55:06.568Z,2.09
2017-02-06T02:56:18.021Z,2.05
2017-02-06T02:57:29.418Z,2.05
2017-02-06T02:58:40.818Z,2.08
2017-02-06T02:59:52.212Z,2.06
2017-02-06T03:01:03.618Z,2.01
2017-02-06T03:02:15.062Z,2.02
2017-02-06T03:03:26.453Z,2.16
2017-02-06T03:04:37.856Z,2.08
2017-02-06T03:05:49.250Z,2.11
2017-02-06T03:07:00.653Z,2.05
2017-02-06T03:08:12.109Z,2.13
2017-02-06T03:09:23.514Z,2.13
2017-02-06T03:10:35.116Z,2.15
2017-02-06T03:11:46.720Z,2.08
2017-02-06T03:12:58.129Z,2.2
2017-02-06T03:14:09.574Z,2.23
2017-02-06T03:15:20.969Z,2.2
2017-02-06T03:16:32.368Z,2.23
2017-02-06T03:17:43.766Z,2.16
2017-02-06T03:18:55.368Z,2.2
2017-02-06T03:20:06.822Z,2.22
2017-02-06T03:21:18.218Z,2.16
2017-02-06T03:22:29.619Z,2.13
2017-02-06T03:23:41.047Z,2.18
2017-02-06T03:24:52.454Z,2.18
2017-02-06T03:26:03.900Z,2.23
2017-02-06T03:27:15.297Z,2.23
2017-02-06T03:28:26.695Z,2.23
2017-02-06T03:29:38.095Z,2.24
2017-02-06T03:30:49.498Z,2.16
2017-02-06T03:32:01.158Z,2.08
2017-02-06T03:33:12.563Z,2.18
2017-02-06T03:34:24.162Z,2.11
2017-02-06T03:35:35.569Z,2.11
2017-02-06T03:36:46.970Z,2.13
2017-02-06T03:37:58.422Z,2.11
2017-02-06T03:39:09.814Z,2.12
2017-02-06T03:40:21.215Z,2.13
2017-02-06T03:41:32.612Z,2.15
2017-02-06T03:42:44.020Z,2.08
2017-02-06T03:43:55.475Z,2.16
2017-02-06T03:45:06.883Z,2.22
2017-02-06T03:46:18.287Z,2.16
2017-02-06T03:47:29.695Z,2.16
2017-02-06T03:48:41.100Z,2.06
2017-02-06T03:49:52.552Z,2.23
2017-02-06T03:51:03.958Z,2.16
2017-02-06T03:52:15.605Z,2.18
2017-02-06T03:53:27.006Z,2.18
2017-02-06T03:54:38.411Z,2.23
2017-02-06T03:55:49.863Z,2.2
2017-02-06T03:57:01.260Z,2.2
2017-02-06T03:58:12.867Z,2.22
2017-02-06T03:59:24.274Z,2.22
2017-02-06T04:00:35.908Z,2.22
2017-02-06T04:01:47.573Z,2.16
2017-02-06T04:02:58.966Z,2.24
2017-02-06T04:04:10.570Z,2.18
2017-02-06T04:05:22.173Z,2.26
2017-02-06T04:06:33.575Z,2.36
2017-02-06T04:07:45.026Z,2.3
2017-02-06T04:08:56.425Z,2.33
2017-02-06T04:10:07.826Z,2.29
2017-02-06T04:11:19.228Z,2.41
2017-02-06T04:12:30.623Z,2.34
2017-02-06T04:13:42.067Z,2.34
2017-02-06T04:14:53.472Z,2.44
2017-02-06T04:16:04.874Z,2.29
2017-02-06T04:17:16.277Z,2.31
2017-02-06T04:18:27.687Z,2.3
2017-02-06T04:19:39.345Z,2.26
2017-02-06T04:20:50.753Z,2.3
2017-02-06T04:22:02.149Z,2.27
2017-02-06T04:23:13.753Z,2.31
2017-02-06T04:24:25.157Z,2.27
2017-02-06T04:25:36.603Z,2.29
2017-02-06T04:26:48.207Z,2.34
2017-02-06T04:27:59.610Z,2.33
2017-02-06T04:29:11.015Z,2.36
2017-02-06T04:30:22.617Z,2.42
2017-02-06T04:31:34.481Z,2.4
2017-02-06T04:32:45.875Z,2.44
2017-02-06T04:33:57.273Z,2.4
2017-02-06T04:35:08.683Z,2.42
2017-02-06T04:36:20.084Z,2.44
2017-02-06T04:37:31.532Z,2.48
2017-02-06T04:38:42.935Z,2.49
2017-02-06T04:39:54.337Z,2.49
2017-02-06T04:41:05.738Z,2.49
2017-02-06T04:42:17.139Z,2.48
2017-02-06T04:43:28.593Z,2.48
2017-02-06T04:44:39.981Z,2.49
2017-02-06T04:45:51.589Z,2.45
2017-02-06T04:47:03.189Z,2.45
2017-02-06T04:48:14.591Z,2.45
2017-02-06T04:49:26.042Z,2.48
2017-02-06T04:50:37.444Z,2.52
2017-02-06T04:51:48.851Z,2.44
2017-02-06T04:53:00.247Z,2.54
2017-02-06T04:54:11.851Z,2.44
2017-02-06T04:55:23.304Z,2.47
2017-02-06T04:56:34.707Z,2.47
2017-02-06T04:57:46.351Z,2.47
2017-02-06T04:58:57.756Z,2.54
2017-02-06T05:00:09.362Z,2.47
2017-02-06T05:01:20.814Z,2.55
2017-02-06T05:02:32.220Z,2.47
2017-02-06T05:03:43.619Z,2.58
2017-02-06T05:04:55.014Z,2.45
2017-02-06T05:06:06.404Z,2.51
2017-02-06T05:07:17.855Z,2.58
2017-02-06T05:08:29.471Z,2.54
2017-02-06T05:09:40.870Z,2.51
2017-02-06T05:10:52.276Z,2.6
2017-02-06T05:12:03.679Z,2.54
2017-02-06T05:13:15.145Z,2.62
2017-02-06T05:14:26.552Z,2.55
2017-02-06T05:15:37.958Z,2.59
2017-02-06T05:16:49.557Z,2.55
2017-02-06T05:18:00.955Z,2.52
2017-02-06T05:19:12.622Z,2.48
2017-02-06T05:20:24.024Z,2.62
2017-02-06T05:21:35.455Z,2.58
2017-02-06T05:22:47.066Z,2.59
2017-02-06T05:23:58.670Z,2.48
2017-02-06T05:25:10.120Z,2.51
2017-02-06T05:26:21.531Z,2.44
2017-02-06T05:27:32.935Z,2.49
2017-02-06T05:28:44.337Z,2.48
2017-02-06T05:29:55.744Z,2.51
2017-02-06T05:31:07.194Z,2.58
2017-02-06T05:32:18.655Z,2.58
2017-02-06T05:33:30.256Z,2.49
2017-02-06T05:34:41.659Z,2.55
2017-02-06T05:35:53.055Z,2.44
2017-02-06T05:37:04.506Z,2.47
2017-02-06T05:38:15.904Z,2.42
2017-02-06T05:39:27.517Z,2.49
2017-02-06T05:40:38.918Z,2.48
2017-02-06T05:41:50.317Z,2.49
2017-02-06T05:43:01.767Z,2.41
2017-02-06T05:44:13.166Z,2.42
2017-02-06T05:45:24.575Z,2.42
2017-02-06T05:46:35.969Z,2.31
2017-02-06T05:47:47.373Z,2.38
2017-02-06T05:48:58.833Z,2.29
2017-02-06T05:50:10.238Z,2.33
2017-02-06T05:51:21.838Z,2.3
2017-02-06T05:52:33.235Z,2.23
2017-02-06T05:53:44.637Z,2.26
2017-02-06T05:54:56.093Z,2.23
2017-02-06T05:56:07.502Z,2.3
2017-02-06T05:57:18.908Z,2.23
2017-02-06T05:58:30.518Z,2.23
2017-02-06T05:59:41.914Z,2.22
2017-02-06T06:00:53.371Z,2.26
2017-02-06T06:02:04.770Z,2.29
2017-02-06T06:03:16.164Z,2.33
2017-02-06T06:04:27.577Z,2.34
2017-02-06T06:05:38.979Z,2.47
2017-02-06T06:06:50.428Z,2.34
2017-02-06T06:08:01.843Z,2.36
2017-02-06T06:09:13.242Z,2.41
2017-02-06T06:10:24.846Z,2.31
2017-02-06T06:11:36.248Z,2.3
2017-02-06T06:12:47.698Z,2.3
2017-02-06T06:13:59.096Z,2.3
2017-02-06T06:15:10.501Z,2.38
2017-02-06T06:16:21.902Z,2.45
2017-02-06T06:17:33.306Z,2.33
2017-02-06T06:18:44.757Z,2.29
2017-02-06T06:19:56.159Z,2.13
2017-02-06T06:21:07.554Z,1.94
2017-02-06T06:22:18.952Z,1.98
2017-02-06T06:23:30.349Z,1.92
2017-02-06T06:24:41.807Z,2.04
2017-02-06T06:25:53.207Z,2.04
2017-02-06T06:27:04.815Z,1.98
2017-02-06T06:28:16.214Z,1.98
2017-02-06T06:29:27.619Z,1.98
2017-02-06T06:30:39.068Z,2.04
2017-02-06T06:31:50.470Z,2.09
2017-02-06T06:33:02.068Z,2.11
2017-02-06T06:34:13.674Z,2.05
2017-02-06T06:35:25.076Z,2.04
2017-02-06T06:36:36.733Z,2.15
2017-02-06T06:37:48.132Z,2.11
2017-02-06T06:38:59.543Z,2.16
2017-02-06T06:40:11.143Z,2.11
2017-02-06T06:41:22.546Z,2.18
2017-02-06T06:42:34.001Z,2.18
2017-02-06T06:43:45.400Z,2.2
2017-02-06T06:44:56.806Z,2.18
2017-02-06T06:46:08.213Z,2.2
2017-02-06T06:47:19.613Z,2.22
2017-02-06T06:48:31.063Z,2.3
2017-02-06T06:49:42.466Z,2.27
2017-02-06T06:50:53.865Z,2.29
2017-02-06T06:52:05.463Z,2.3
2017-02-06T06:53:16.868Z,2.26
2017-02-06T06:54:28.329Z,2.31
2017-02-06T06:55:39.745Z,2.24
2017-02-06T06:56:51.341Z,2.33
2017-02-06T06:58:02.752Z,2.36
2017-02-06T06:59:14.152Z,2.3
2017-02-06T07:00:25.604Z,2.33
2017-02-06T07:01:37.014Z,2.47
2017-02-06T07:02:48.411Z,2.42
2017-02-06T07:03:59.818Z,2.38
2017-02-06T07:05:11.221Z,2.38
2017-02-06T07:06:22.666Z,2.42
2017-02-06T07:07:34.070Z,2.42
2017-02-06T07:08:45.672Z,2.45
2017-02-06T07:09:57.278Z,2.36
2017-02-06T07:11:08.682Z,2.48
2017-02-06T07:12:20.134Z,2.42
2017-02-06T07:13:31.535Z,2.44
2017-02-06T07:14:42.941Z,2.44
2017-02-06T07:15:54.338Z,2.49
2017-02-06T07:17:05.736Z,2.52
2017-02-06T07:18:17.183Z,2.54
2017-02-06T07:19:28.785Z,2.51
2017-02-06T07:20:40.191Z,2.49
2017-02-06T07:21:51.595Z,2.42
2017-02-06T07:23:02.992Z,2.45
2017-02-06T07:24:14.451Z,2.45
2017-02-06T07:25:26.050Z,2.49
2017-02-06T07:26:37.446Z,2.47
2017-02-06T07:27:48.848Z,2.47
2017-02-06T07:29:00.305Z,2.58
2017-02-06T07:30:11.959Z,2.6
2017-02-06T07:31:23.759Z,2.62
2017-02-06T07:32:35.158Z,2.62
2017-02-06T07:33:46.767Z,2.67
2017-02-06T07:34:58.165Z,2.65
2017-02-06T07:36:09.620Z,2.67
2017-02-06T07:37:21.216Z,2.66
2017-02-06T07:38:32.614Z,2.59
2017-02-06T07:39:44.217Z,2.63
2017-02-06T07:40:55.620Z,2.62
2017-02-06T07:42:07.073Z,2.65
2017-02-06T07:43:18.479Z,2.69
2017-02-06T07:44:29.883Z,2.66
2017-02-06T07:45:41.290Z,2.6
2017-02-06T07:46:52.693Z,2.63
2017-02-06T07:48:04.139Z,2.76
2017-02-06T07:49:15.539Z,2.81
2017-02-06T07:50:26.947Z,2.83
2017-02-06T07:51:38.357Z,2.87
2017-02-06T07:52:49.762Z,2.9
2017-02-06T07:54:01.216Z,2.91
2017-02-06T07:55:12.818Z,2.98
2017-02-06T07:56:24.422Z,2.99
2017-02-06T07:57:35.819Z,3.05
2017-02-06T07:58:47.257Z,3.01
2017-02-06T07:59:58.709Z,3.03
2017-02-06T08:01:10.107Z,2.98
2017-02-06T08:02:21.711Z,2.98
2017-02-06T08:03:33.118Z,2.96
2017-02-06T08:04:44.521Z,2.91
2017-02-06T08:05:55.966Z,3.02
2017-02-06T08:07:07.367Z,3.02
2017-02-06T08:08:18.771Z,2.98
2017-02-06T08:09:30.174Z,2.99
2017-02-06T08:10:41.627Z,3.11
2017-02-06T08:11:53.224Z,3.11
2017-02-06T08:13:04.619Z,3.06
2017-02-06T08:14:16.019Z,3.19
2017-02-06T08:15:27.423Z,3.16
2017-02-06T08:16:38.884Z,3.21
2017-02-06T08:17:50.289Z,3.26
2017-02-06T08:19:01.692Z,3.27
2017-02-06T08:20:13.097Z,3.32
2017-02-06T08:21:24.697Z,3.39
2017-02-06T08:22:36.189Z,3.39
2017-02-06T08:23:47.592Z,3.42
2017-02-06T08:24:58.991Z,3.48
2017-02-06T08:26:10.393Z,3.56
2017-02-06T08:27:21.998Z,3.54
2017-02-06T08:28:33.451Z,3.53
2017-02-06T08:29:45.048Z,3.57
2017-02-06T08:30:56.447Z,3.58
2017-02-06T08:32:07.857Z,3.58
2017-02-06T08:33:19.295Z,3.64
2017-02-06T08:34:30.748Z,3.67
2017-02-06T08:35:42.149Z,3.75
2017-02-06T08:36:53.562Z,3.63
2017-02-06T08:38:04.968Z,3.71
2017-02-06T08:39:16.362Z,3.67
2017-02-06T08:40:27.814Z,3.64
2017-02-06T08:41:39.221Z,3.63
2017-02-06T08:42:50.628Z,3.66
2017-02-06T08:44:02.033Z,3.63
2017-02-06T08:45:13.435Z,3.64
2017-02-06T08:46:24.894Z,3.74
2017-02-06T08:47:36.300Z,3.66
2017-02-06T08:48:47.906Z,3.76
2017-02-06T08:49:59.310Z,3.72
2017-02-06T08:51:10.717Z,3.74
2017-02-06T08:52:22.186Z,3.81
2017-02-06T08:53:33.591Z,3.85
2017-02-06T08:54:45.036Z,3.93
2017-02-06T08:55:56.443Z,3.93
2017-02-06T08:57:07.842Z,3.96
2017-02-06T08:58:19.304Z,3.96
2017-02-06T08:59:30.703Z,3.92
2017-02-06T09:00:42.117Z,4.02
2017-02-06T09:01:53.524Z,4.07
2017-02-06T09:03:04.931Z,4.12
2017-02-06T09:04:16.385Z,4.07
2017-02-06T09:05:27.791Z,4.11
2017-02-06T09:06:39.399Z,4.21
2017-02-06T09:07:50.808Z,4.22
2017-02-06T09:09:02.217Z,4.24
2017-02-06T09:10:13.675Z,4.3
2017-02-06T09:11:25.085Z,4.33
2017-02-06T09:12:36.684Z,4.36
2017-02-06T09:13:48.092Z,4.29
2017-02-06T09:14:59.490Z,4.32
2017-02-06T09:16:10.948Z,4.39
2017-02-06T09:17:22.549Z,4.46
2017-02-06T09:18:33.958Z,4.35
2017-02-06T09:19:45.556Z,4.4
2017-02-06T09:20:56.959Z,4.35
2017-02-06T09:22:08.415Z,4.42
2017-02-06T09:23:19.817Z,4.39
2017-02-06T09:24:31.222Z,4.46
2017-02-06T09:25:42.627Z,4.42
2017-02-06T09:26:54.464Z,4.47
2017-02-06T09:28:05.926Z,4.48
2017-02-06T09:29:17.332Z,4.5
2017-02-06T09:30:28.740Z,4.51
2017-02-06T09:31:40.351Z,4.51
2017-02-06T09:32:51.754Z,4.65
2017-02-06T09:34:03.205Z,4.6
2017-02-06T09:35:14.811Z,4.58
2017-02-06T09:36:26.215Z,4.6
2017-02-06T09:37:37.822Z,4.56
2017-02-06T09:38:49.229Z,4.54
2017-02-06T09:40:00.729Z,4.47
2017-02-06T09:41:12.341Z,4.44
2017-02-06T09:42:23.747Z,4.29
2017-02-06T09:43:35.151Z,4.3
2017-02-06T09:44:46.556Z,4.26
2017-02-06T09:45:58.008Z,4.24
2017-02-06T09:47:09.613Z,4.21
2017-02-06T09:48:21.018Z,4.3
2017-02-06T09:49:32.625Z,4.32
2017-02-06T09:50:44.037Z,4.38
2017-02-06T09:51:55.492Z,4.35
2017-02-06T09:53:06.900Z,4.48
2017-02-06T09:54:18.306Z,4.51
2017-02-06T09:55:29.709Z,4.5
2017-02-06T09:56:41.109Z,4.51
2017-02-06T09:57:52.572Z,4.44
2017-02-06T09:59:04.176Z,4.51
2017-02-06T10:00:15.589Z,4.54
2017-02-06T10:01:26.995Z,4.48
2017-02-06T10:02:38.398Z,4.58
2017-02-06T10:03:49.847Z,4.61
2017-02-06T10:05:01.254Z,4.64
2017-02-06T10:06:12.664Z,4.64
2017-02-06T10:07:24.065Z,4.71
2017-02-06T10:08:35.472Z,4.79
2017-02-06T10:09:46.939Z,4.85
2017-02-06T10:10:58.351Z,4.88
2017-02-06T10:12:09.756Z,4.95
2017-02-06T10:13:21.370Z,4.95
2017-02-06T10:14:32.779Z,4.9
2017-02-06T10:15:44.233Z,4.9
2017-02-06T10:16:55.836Z,4.88
2017-02-06T10:18:07.249Z,4.92
2017-02-06T10:19:18.659Z,4.98
2017-02-06T10:20:30.068Z,4.92
2017-02-06T10:21:41.927Z,4.91
2017-02-06T10:22:53.938Z,4.88
2017-02-06T10:24:05.339Z,4.91
2017-02-06T10:25:16.947Z,4.87
2017-02-06T10:26:28.348Z,4.98
2017-02-06T10:27:39.803Z,4.94
2017-02-06T10:28:51.219Z,4.87
2017-02-06T10:30:02.832Z,4.88
2017-02-06T10:31:14.231Z,4.83
2017-02-06T10:32:26.040Z,4.84
2017-02-06T10:33:37.493Z,4.76
2017-02-06T10:34:48.895Z,4.84
2017-02-06T10:36:00.507Z,4.87
2017-02-06T10:37:11.913Z,4.85
2017-02-06T10:38:23.319Z,4.95
2017-02-06T10:39:34.775Z,4.95
2017-02-06T10:40:46.174Z,4.94
2017-02-06T10:41:57.579Z,4.88
2017-02-06T10:43:08.985Z,4.91
2017-02-06T10:44:20.393Z,4.98
2017-02-06T10:45:31.844Z,5.03
2017-02-06T10:46:43.248Z,5
2017-02-06T10:47:54.659Z,5
2017-02-06T10:49:06.062Z,5.1
2017-02-06T10:50:17.462Z,5.18
2017-02-06T10:51:29.330Z,5.16
2017-02-06T10:52:40.732Z,5.24
2017-02-06T10:53:52.141Z,5.26
2017-02-06T10:55:03.537Z,5.27
2017-02-06T10:56:14.944Z,5.28
2017-02-06T10:57:26.603Z,5.36
2017-02-06T10:58:38.010Z,5.37
2017-02-06T10:59:49.613Z,5.42
2017-02-06T11:01:01.028Z,5.46
2017-02-06T11:02:12.431Z,5.48
2017-02-06T11:03:24.088Z,5.52
2017-02-06T11:04:35.493Z,5.63
2017-02-06T11:05:46.898Z,5.67
2017-02-06T11:06:58.547Z,5.7
2017-02-06T11:08:09.952Z,5.7
2017-02-06T11:09:21.407Z,5.73
2017-02-06T11:10:33.019Z,5.77
2017-02-06T11:11:44.629Z,5.72
2017-02-06T11:12:56.035Z,5.67
2017-02-06T11:14:07.476Z,5.78
2017-02-06T11:15:18.934Z,5.69
2017-02-06T11:16:30.786Z,5.69
2017-02-06T11:17:42.197Z,5.59
2017-02-06T11:18:53.805Z,5.67
2017-02-06T11:20:05.403Z,5.64
2017-02-06T11:21:16.853Z,5.63
2017-02-06T11:22:28.260Z,5.57
2017-02-06T11:23:39.670Z,5.59
2017-02-06T11:24:51.079Z,5.55
2017-02-06T11:26:02.490Z,5.48
2017-02-06T11:27:13.948Z,5.46
2017-02-06T11:28:25.351Z,5.49
2017-02-06T11:29:36.763Z,5.39
2017-02-06T11:30:48.168Z,5.46
2017-02-06T11:31:59.780Z,5.48
2017-02-06T11:33:11.276Z,5.46
2017-02-06T11:34:22.883Z,5.48
2017-02-06T11:35:34.291Z,5.49
2017-02-06T11:36:45.699Z,5.49
2017-02-06T11:37:57.117Z,5.62
2017-02-06T11:39:08.783Z,5.49
2017-02-06T11:40:20.186Z,5.54
2017-02-06T11:41:31.609Z,5.55
2017-02-06T11:42:43.010Z,5.55
2017-02-06T11:43:54.422Z,5.52
2017-02-06T11:45:05.882Z,5.6
2017-02-06T11:46:17.332Z,5.62
2017-02-06T11:47:28.748Z,5.54
2017-02-06T11:48:40.158Z,5.55
2017-02-06T11:49:51.572Z,5.48
2017-02-06T11:51:03.033Z,5.49
2017-02-06T11:52:14.441Z,5.51
2017-02-06T11:53:25.853Z,5.51
2017-02-06T11:54:37.260Z,5.51
2017-02-06T11:55:48.668Z,5.55
2017-02-06T11:57:00.326Z,5.48
2017-02-06T11:58:11.740Z,5.49
2017-02-06T11:59:23.153Z,5.39
2017-02-06T12:00:34.771Z,5.42
2017-02-06T12:01:46.176Z,5.45
2017-02-06T12:02:57.643Z,5.33
2017-02-06T12:04:09.046Z,5.26
2017-02-06T12:05:20.653Z,5.18
2017-02-06T12:06:32.065Z,5.18
2017-02-06T12:07:43.484Z,5.12
2017-02-06T12:08:54.947Z,5.06
2017-02-06T12:10:06.555Z,5.1
2017-02-06T12:11:17.958Z,5.13
2017-02-06T12:12:29.564Z,5.09
2017-02-06T12:13:41.172Z,5.13
2017-02-06T12:14:52.622Z,5.02
2017-02-06T12:16:04.035Z,5.15
2017-02-06T12:17:15.647Z,5.18
2017-02-06T12:18:27.056Z,5.2
2017-02-06T12:19:38.463Z,5.28
2017-02-06T12:20:49.918Z,5.21
2017-02-06T12:22:01.328Z,5.3
2017-02-06T12:23:12.737Z,5.3
2017-02-06T12:24:24.347Z,5.27
2017-02-06T12:25:35.968Z,5.23
2017-02-06T12:26:47.428Z,5.28
2017-02-06T12:27:59.037Z,5.26
2017-02-06T12:29:10.475Z,5.3
2017-02-06T12:30:21.884Z,5.26
2017-02-06T12:31:33.300Z,5.16
2017-02-06T12:32:44.750Z,5.12
2017-02-06T12:33:56.156Z,5.15
2017-02-06T12:35:07.563Z,5.08
2017-02-06T12:36:18.972Z,5
2017-02-06T12:37:30.384Z,5.12
2017-02-06T12:38:41.841Z,5.08
2017-02-06T12:39:53.248Z,5
2017-02-06T12:41:04.656Z,5.1
2017-02-06T12:42:16.052Z,5.08
2017-02-06T12:43:27.456Z,5
2017-02-06T12:44:38.911Z,5.02
2017-02-06T12:45:50.312Z,5.02
2017-02-06T12:47:01.728Z,5.1
2017-02-06T12:48:13.127Z,5.06
2017-02-06T12:49:24.540Z,5.03
2017-02-06T12:50:36.003Z,5.03
2017-02-06T12:51:47.409Z,5.05
2017-02-06T12:52:58.816Z,5.02
2017-02-06T12:54:10.228Z,5.03
2017-02-06T12:55:21.639Z,5.03
2017-02-06T12:56:33.089Z,5.1
2017-02-06T12:57:44.500Z,5.09
2017-02-06T12:58:55.909Z,5.1
2017-02-06T13:00:07.322Z,5.06
2017-02-06T13:01:18.732Z,5.05
2017-02-06T13:02:30.195Z,5.09
2017-02-06T13:03:41.604Z,5.02
2017-02-06T13:04:53.015Z,5.02
2017-02-06T13:06:04.423Z,5.05
2017-02-06T13:07:16.032Z,5.15
2017-02-06T13:08:27.696Z,5.06
2017-02-06T13:09:39.097Z,5.03
2017-02-06T13:10:50.720Z,5.02
2017-02-06T13:12:02.125Z,4.97
2017-02-06T13:13:13.534Z,5.09
2017-02-06T13:14:25.189Z,5.13
2017-02-06T13:15:36.588Z,5.16
2017-02-06T13:16:47.999Z,5.16
2017-02-06T13:17:59.414Z,5.26
2017-02-06T13:19:10.825Z,5.28
2017-02-06T13:20:22.282Z,5.23
2017-02-06T13:21:33.695Z,5.23
2017-02-06T13:22:45.305Z,5.3
2017-02-06T13:23:56.724Z,5.31
2017-02-06T13:25:08.131Z,5.28
2017-02-06T13:26:19.993Z,5.27
2017-02-06T13:27:31.410Z,5.21
2017-02-06T13:28:42.823Z,5.21
2017-02-06T13:29:54.226Z,5.12
2017-02-06T13:31:05.635Z,5.08
2017-02-06T13:32:17.095Z,4.92
2017-02-06T13:33:28.514Z,4.91
2017-02-06T13:34:39.929Z,4.9
2017-02-06T13:35:51.344Z,4.92
2017-02-06T13:37:02.955Z,4.94
2017-02-06T13:38:14.413Z,5.02
2017-02-06T13:39:25.826Z,4.98
2017-02-06T13:40:37.234Z,5
2017-02-06T13:41:48.636Z,5.1
2017-02-06T13:43:00.043Z,5.08
2017-02-06T13:44:11.501Z,5.12
2017-02-06T13:45:22.903Z,5.09
2017-02-06T13:46:34.311Z,5.08
2017-02-06T13:47:45.719Z,5.02
2017-02-06T13:48:57.124Z,4.88
2017-02-06T13:50:08.785Z,4.97
2017-02-06T13:51:20.197Z,4.98
2017-02-06T13:52:31.805Z,5.03
2017-02-06T13:53:43.412Z,5.05
2017-02-06T13:54:54.830Z,5.02
2017-02-06T13:56:06.485Z,5
2017-02-06T13:57:17.896Z,4.97
2017-02-06T13:58:29.310Z,4.98
2017-02-06T13:59:40.713Z,5.06
2017-02-06T14:00:52.323Z,5
2017-02-06T14:02:03.777Z,4.98
2017-02-06T14:03:15.387Z,5.1
2017-02-06T14:04:26.808Z,5
2017-02-06T14:05:38.219Z,5.08
2017-02-06T14:06:49.826Z,5.02
2017-02-06T14:08:01.289Z,5.1
2017-02-06T14:09:12.692Z,5.05
2017-02-06T14:10:24.107Z,5.16
2017-02-06T14:11:35.521Z,5.09
2017-02-06T14:12:46.924Z,5.12
2017-02-06T14:13:58.374Z,5.05
2017-02-06T14:15:09.779Z,5.09
2017-02-06T14:16:21.383Z,5.05
2017-02-06T14:17:32.799Z,4.98
2017-02-06T14:18:44.615Z,5.05
2017-02-06T14:19:56.063Z,4.88
2017-02-06T14:21:07.476Z,4.98
2017-02-06T14:22:18.888Z,4.98
2017-02-06T14:23:30.299Z,4.9
2017-02-06T14:24:41.708Z,4.91
2017-02-06T14:25:53.167Z,4.97
2017-02-06T14:27:04.573Z,4.97
2017-02-06T14:28:15.973Z,4.95
2017-02-06T14:29:27.394Z,4.95
2017-02-06T14:30:39.003Z,4.98
2017-02-06T14:31:50.669Z,5
2017-02-06T14:33:02.068Z,5.08
2017-02-06T14:34:13.467Z,5.12
2017-02-06T14:35:24.882Z,5.23
2017-02-06T14:36:36.286Z,5.31
2017-02-06T14:37:47.749Z,5.41
2017-02-06T14:38:59.153Z,5.39
2017-02-06T14:40:10.762Z,5.46
2017-02-06T14:41:22.373Z,5.52
2017-02-06T14:42:33.987Z,5.42
2017-02-06T14:43:45.644Z,5.41
2017-02-06T14:44:57.048Z,5.37
2017-02-06T14:46:08.454Z,5.39
2017-02-06T14:47:20.264Z,5.41
2017-02-06T14:48:31.671Z,5.37
2017-02-06T14:49:43.129Z,5.44
2017-02-06T14:50:54.541Z,5.42
2017-02-06T14:52:05.961Z,5.48
2017-02-06T14:53:17.367Z,5.52
2017-02-06T14:54:28.778Z,5.55
2017-02-06T14:55:40.238Z,5.51
2017-02-06T14:56:51.640Z,5.6
2017-02-06T14:58:03.092Z,5.59
2017-02-06T14:59:14.709Z,5.66
2017-02-06T15:00:26.127Z,5.69
2017-02-06T15:01:37.583Z,5.77
2017-02-06T15:02:48.992Z,5.75
2017-02-06T15:04:00.398Z,5.8
2017-02-06T15:05:11.814Z,5.84
2017-02-06T15:06:23.217Z,5.91
2017-02-06T15:07:34.709Z,5.84
2017-02-06T15:08:46.113Z,5.96
2017-02-06T15:09:57.525Z,5.96
2017-02-06T15:11:08.931Z,5.91
2017-02-06T15:12:20.537Z,5.96
2017-02-06T15:13:31.995Z,5.95
2017-02-06T15:14:43.407Z,5.96
2017-02-06T15:15:54.814Z,5.96
2017-02-06T15:17:06.220Z,5.99
2017-02-06T15:18:17.641Z,5.89
2017-02-06T15:19:29.103Z,5.95
2017-02-06T15:20:40.508Z,6.02
2017-02-06T15:21:51.925Z,6
2017-02-06T15:23:03.338Z,6.03
2017-02-06T15:24:14.738Z,5.96
2017-02-06T15:25:26.604Z,6.05
2017-02-06T15:26:38.004Z,6.02
2017-02-06T15:27:49.414Z,6.09
2017-02-06T15:29:01.223Z,6.03
2017-02-06T15:30:12.841Z,5.99
2017-02-06T15:31:24.299Z,6.03
2017-02-06T15:32:35.711Z,5.92
2017-02-06T15:33:47.117Z,5.99
2017-02-06T15:34:58.731Z,5.89
2017-02-06T15:36:10.146Z,5.91
2017-02-06T15:37:21.611Z,5.89
2017-02-06T15:38:33.021Z,5.98
2017-02-06T15:39:44.428Z,5.92
2017-02-06T15:40:55.837Z,5.88
2017-02-06T15:42:07.246Z,5.85
2017-02-06T15:43:18.709Z,5.87
2017-02-06T15:44:30.122Z,5.88
2017-02-06T15:45:41.533Z,5.85
2017-02-06T15:46:52.945Z,5.87
2017-02-06T15:48:04.362Z,5.8
2017-02-06T15:49:15.770Z,5.89
2017-02-06T15:50:27.183Z,5.87
2017-02-06T15:51:38.593Z,5.95
2017-02-06T15:52:50.015Z,5.88
2017-02-06T15:54:01.472Z,5.82